sensor_id;sensor_type;location;lat;lon;timestamp;temperature;humidity
52481;DHT22;38393;52.404;13.532;2024-01-27T00:00:25;5.80;99.90
52481;DHT22;38393;52.404;13.532;2024-01-27T00:02:51;5.80;99.90
52481;DHT22;38393;52.404;13.532;2024-01-27T00:05:17;5.70;99.90
52481;DHT22;38393;52.404;13.532;2024-01-27T00:07:42;5.80;99.90
52481;DHT22;38393;52.404;13.532;2024-01-27T00:10:08;5.80;99.90
52481;DHT22;38393;52.404;13.532;2024-01-27T00:12:33;5.70;99.90
52481;DHT22;38393;52.404;13.532;2024-01-27T00:14:59;5.80;99.90
52481;DHT22;38393;52.404;13.532;2024-01-27T00:17:25;5.70;99.90
52481;DHT22;38393;52.404;13.532;2024-01-27T00:19:51;5.90;99.90
52481;DHT22;38393;52.404;13.532;2024-01-27T00:22:17;5.70;99.90
52481;DHT22;38393;52.404;13.532;2024-01-27T00:24:43;5.70;99.90
52481;DHT22;38393;52.404;13.532;2024-01-27T00:27:11;5.70;99.90
52481;DHT22;38393;52.404;13.532;2024-01-27T00:29:39;5.70;99.90
52481;DHT22;38393;52.404;13.532;2024-01-27T00:32:05;5.60;99.90
52481;DHT22;38393;52.404;13.532;2024-01-27T00:34:30;5.60;99.90
52481;DHT22;38393;52.404;13.532;2024-01-27T00:36:56;5.60;99.90
52481;DHT22;38393;52.404;13.532;2024-01-27T00:39:22;5.60;99.90
52481;DHT22;38393;52.404;13.532;2024-01-27T00:41:48;5.50;99.90
52481;DHT22;38393;52.404;13.532;2024-01-27T00:44:13;5.60;99.90
52481;DHT22;38393;52.404;13.532;2024-01-27T00:46:39;5.70;99.90
52481;DHT22;38393;52.404;13.532;2024-01-27T00:49:04;5.60;99.90
52481;DHT22;38393;52.404;13.532;2024-01-27T00:51:32;5.60;99.90
52481;DHT22;38393;52.404;13.532;2024-01-27T00:53:57;5.70;99.90
52481;DHT22;38393;52.404;13.532;2024-01-27T00:56:23;5.60;99.90
52481;DHT22;38393;52.404;13.532;2024-01-27T00:58:51;5.70;99.90
52481;DHT22;38393;52.404;13.532;2024-01-27T01:01:16;5.60;99.90
52481;DHT22;38393;52.404;13.532;2024-01-27T01:03:42;5.70;99.90
52481;DHT22;38393;52.404;13.532;2024-01-27T01:06:07;5.70;99.90
52481;DHT22;38393;52.404;13.532;2024-01-27T01:08:33;5.70;99.90
52481;DHT22;38393;52.404;13.532;2024-01-27T01:10:58;5.70;99.90
52481;DHT22;38393;52.404;13.532;2024-01-27T01:13:25;5.60;99.90
52481;DHT22;38393;52.404;13.532;2024-01-27T01:15:50;5.60;99.90
52481;DHT22;38393;52.404;13.532;2024-01-27T01:18:17;5.60;99.90
52481;DHT22;38393;52.404;13.532;2024-01-27T01:20:43;5.60;99.90
52481;DHT22;38393;52.404;13.532;2024-01-27T01:23:09;5.50;99.90
52481;DHT22;38393;52.404;13.532;2024-01-27T01:25:34;5.50;99.90
52481;DHT22;38393;52.404;13.532;2024-01-27T01:28:00;5.60;99.90
52481;DHT22;38393;52.404;13.532;2024-01-27T01:30:28;5.50;99.90
52481;DHT22;38393;52.404;13.532;2024-01-27T01:32:54;5.50;99.90
52481;DHT22;38393;52.404;13.532;2024-01-27T01:35:19;5.40;99.90
52481;DHT22;38393;52.404;13.532;2024-01-27T01:37:45;5.40;99.90
52481;DHT22;38393;52.404;13.532;2024-01-27T01:40:13;5.40;99.90
52481;DHT22;38393;52.404;13.532;2024-01-27T01:42:40;5.40;99.90
52481;DHT22;38393;52.404;13.532;2024-01-27T01:45:07;5.40;99.90
52481;DHT22;38393;52.404;13.532;2024-01-27T01:47:34;5.40;99.90
52481;DHT22;38393;52.404;13.532;2024-01-27T01:49:59;5.40;99.90
52481;DHT22;38393;52.404;13.532;2024-01-27T01:52:25;5.40;99.90
52481;DHT22;38393;52.404;13.532;2024-01-27T01:54:51;5.50;99.90
52481;DHT22;38393;52.404;13.532;2024-01-27T01:57:19;5.40;99.90
52481;DHT22;38393;52.404;13.532;2024-01-27T01:59:45;5.40;99.90
52481;DHT22;38393;52.404;13.532;2024-01-27T02:02:12;5.50;99.90
52481;DHT22;38393;52.404;13.532;2024-01-27T02:04:45;5.40;99.90
52481;DHT22;38393;52.404;13.532;2024-01-27T02:07:14;5.40;99.90
52481;DHT22;38393;52.404;13.532;2024-01-27T02:09:40;5.30;99.90
52481;DHT22;38393;52.404;13.532;2024-01-27T02:12:06;5.40;99.90
52481;DHT22;38393;52.404;13.532;2024-01-27T02:14:37;5.30;99.90
52481;DHT22;38393;52.404;13.532;2024-01-27T02:17:04;5.40;99.90
52481;DHT22;38393;52.404;13.532;2024-01-27T02:19:35;5.30;99.90
52481;DHT22;38393;52.404;13.532;2024-01-27T02:22:01;5.50;99.90
52481;DHT22;38393;52.404;13.532;2024-01-27T02:24:26;5.50;99.90
52481;DHT22;38393;52.404;13.532;2024-01-27T02:27:02;5.50;99.90
52481;DHT22;38393;52.404;13.532;2024-01-27T02:29:27;5.50;99.90
52481;DHT22;38393;52.404;13.532;2024-01-27T02:31:54;5.50;99.90
52481;DHT22;38393;52.404;13.532;2024-01-27T02:34:19;5.50;99.90
52481;DHT22;38393;52.404;13.532;2024-01-27T02:36:45;5.40;99.90
52481;DHT22;38393;52.404;13.532;2024-01-27T02:39:10;5.70;99.90
52481;DHT22;38393;52.404;13.532;2024-01-27T02:41:36;5.50;99.90
52481;DHT22;38393;52.404;13.532;2024-01-27T02:44:05;5.50;99.90
52481;DHT22;38393;52.404;13.532;2024-01-27T02:46:31;5.50;99.90
52481;DHT22;38393;52.404;13.532;2024-01-27T02:48:56;5.50;99.90
52481;DHT22;38393;52.404;13.532;2024-01-27T02:51:22;5.50;99.90
52481;DHT22;38393;52.404;13.532;2024-01-27T02:53:47;5.60;99.90
52481;DHT22;38393;52.404;13.532;2024-01-27T02:56:16;5.60;99.90
52481;DHT22;38393;52.404;13.532;2024-01-27T02:58:41;5.50;99.90
52481;DHT22;38393;52.404;13.532;2024-01-27T03:01:07;5.60;99.90
52481;DHT22;38393;52.404;13.532;2024-01-27T03:03:33;5.50;99.90
52481;DHT22;38393;52.404;13.532;2024-01-27T03:05:59;5.50;99.90
52481;DHT22;38393;52.404;13.532;2024-01-27T03:08:25;5.50;99.90
52481;DHT22;38393;52.404;13.532;2024-01-27T03:10:50;5.60;99.90
52481;DHT22;38393;52.404;13.532;2024-01-27T03:13:16;5.60;99.90
52481;DHT22;38393;52.404;13.532;2024-01-27T03:15:41;5.50;99.90
52481;DHT22;38393;52.404;13.532;2024-01-27T03:18:08;5.50;99.90
52481;DHT22;38393;52.404;13.532;2024-01-27T03:20:34;5.50;99.90
52481;DHT22;38393;52.404;13.532;2024-01-27T03:22:59;5.40;99.90
52481;DHT22;38393;52.404;13.532;2024-01-27T03:25:25;5.30;99.90
52481;DHT22;38393;52.404;13.532;2024-01-27T03:27:53;5.40;99.90
52481;DHT22;38393;52.404;13.532;2024-01-27T03:30:22;5.40;99.90
52481;DHT22;38393;52.404;13.532;2024-01-27T03:32:49;5.30;99.90
52481;DHT22;38393;52.404;13.532;2024-01-27T03:35:15;5.30;99.90
52481;DHT22;38393;52.404;13.532;2024-01-27T03:37:40;5.30;99.90
52481;DHT22;38393;52.404;13.532;2024-01-27T03:40:06;5.30;99.90
52481;DHT22;38393;52.404;13.532;2024-01-27T03:42:32;5.20;99.90
52481;DHT22;38393;52.404;13.532;2024-01-27T03:44:58;5.10;99.90
52481;DHT22;38393;52.404;13.532;2024-01-27T03:47:23;5.10;99.90
52481;DHT22;38393;52.404;13.532;2024-01-27T03:49:49;5.10;99.90
52481;DHT22;38393;52.404;13.532;2024-01-27T03:52:14;5.00;99.90
52481;DHT22;38393;52.404;13.532;2024-01-27T03:54:40;5.00;99.90
52481;DHT22;38393;52.404;13.532;2024-01-27T03:57:05;5.00;99.90
52481;DHT22;38393;52.404;13.532;2024-01-27T03:59:31;4.90;99.90
52481;DHT22;38393;52.404;13.532;2024-01-27T04:01:57;4.90;99.90
52481;DHT22;38393;52.404;13.532;2024-01-27T04:04:22;4.90;99.90
52481;DHT22;38393;52.404;13.532;2024-01-27T04:06:49;4.90;99.90
52481;DHT22;38393;52.404;13.532;2024-01-27T04:09:15;4.80;99.90
52481;DHT22;38393;52.404;13.532;2024-01-27T04:11:41;4.80;99.90
52481;DHT22;38393;52.404;13.532;2024-01-27T04:14:06;4.80;99.90
52481;DHT22;38393;52.404;13.532;2024-01-27T04:16:32;4.70;99.90
52481;DHT22;38393;52.404;13.532;2024-01-27T04:18:58;4.60;99.90
52481;DHT22;38393;52.404;13.532;2024-01-27T04:21:23;4.70;99.90
52481;DHT22;38393;52.404;13.532;2024-01-27T04:23:49;4.70;99.90
52481;DHT22;38393;52.404;13.532;2024-01-27T04:26:14;4.50;99.90
52481;DHT22;38393;52.404;13.532;2024-01-27T04:28:40;4.70;99.90
52481;DHT22;38393;52.404;13.532;2024-01-27T04:31:05;4.70;99.90
52481;DHT22;38393;52.404;13.532;2024-01-27T04:33:31;4.60;99.90
52481;DHT22;38393;52.404;13.532;2024-01-27T04:35:57;4.60;99.90
52481;DHT22;38393;52.404;13.532;2024-01-27T04:38:22;4.70;99.90
52481;DHT22;38393;52.404;13.532;2024-01-27T04:40:50;4.60;99.90
52481;DHT22;38393;52.404;13.532;2024-01-27T04:43:16;4.70;99.90
52481;DHT22;38393;52.404;13.532;2024-01-27T04:45:42;4.60;99.90
52481;DHT22;38393;52.404;13.532;2024-01-27T04:48:08;4.60;99.90
52481;DHT22;38393;52.404;13.532;2024-01-27T04:50:34;4.60;99.90
52481;DHT22;38393;52.404;13.532;2024-01-27T04:52:59;4.50;99.90
52481;DHT22;38393;52.404;13.532;2024-01-27T04:55:24;4.60;99.90
52481;DHT22;38393;52.404;13.532;2024-01-27T04:57:50;4.70;99.90
52481;DHT22;38393;52.404;13.532;2024-01-27T05:00:16;4.70;99.90
52481;DHT22;38393;52.404;13.532;2024-01-27T05:02:41;4.80;99.90
52481;DHT22;38393;52.404;13.532;2024-01-27T05:05:08;4.90;99.90
52481;DHT22;38393;52.404;13.532;2024-01-27T05:07:34;4.90;99.90
52481;DHT22;38393;52.404;13.532;2024-01-27T05:10:00;5.00;99.90
52481;DHT22;38393;52.404;13.532;2024-01-27T05:12:25;5.00;99.90
52481;DHT22;38393;52.404;13.532;2024-01-27T05:14:51;5.00;99.90
52481;DHT22;38393;52.404;13.532;2024-01-27T05:17:16;4.90;99.90
52481;DHT22;38393;52.404;13.532;2024-01-27T05:19:42;5.10;99.90
52481;DHT22;38393;52.404;13.532;2024-01-27T05:22:07;5.00;99.90
52481;DHT22;38393;52.404;13.532;2024-01-27T05:24:33;5.20;99.90
52481;DHT22;38393;52.404;13.532;2024-01-27T05:26:59;5.10;99.90
52481;DHT22;38393;52.404;13.532;2024-01-27T05:29:25;5.10;99.90
52481;DHT22;38393;52.404;13.532;2024-01-27T05:31:51;5.00;99.90
52481;DHT22;38393;52.404;13.532;2024-01-27T05:34:17;5.00;99.90
52481;DHT22;38393;52.404;13.532;2024-01-27T05:36:42;5.10;99.90
52481;DHT22;38393;52.404;13.532;2024-01-27T05:39:08;5.10;99.90
52481;DHT22;38393;52.404;13.532;2024-01-27T05:41:34;5.20;99.90
52481;DHT22;38393;52.404;13.532;2024-01-27T05:44:00;5.10;99.90
52481;DHT22;38393;52.404;13.532;2024-01-27T05:46:25;5.20;99.90
52481;DHT22;38393;52.404;13.532;2024-01-27T05:48:51;5.10;99.90
52481;DHT22;38393;52.404;13.532;2024-01-27T05:51:19;5.20;99.90
52481;DHT22;38393;52.404;13.532;2024-01-27T05:53:45;5.00;99.90
52481;DHT22;38393;52.404;13.532;2024-01-27T05:56:11;5.30;99.90
52481;DHT22;38393;52.404;13.532;2024-01-27T05:58:37;5.10;99.90
52481;DHT22;38393;52.404;13.532;2024-01-27T06:01:03;5.10;99.90
52481;DHT22;38393;52.404;13.532;2024-01-27T06:03:29;5.10;99.90
52481;DHT22;38393;52.404;13.532;2024-01-27T06:05:54;5.10;99.90
52481;DHT22;38393;52.404;13.532;2024-01-27T06:08:20;5.20;99.90
52481;DHT22;38393;52.404;13.532;2024-01-27T06:10:46;5.10;99.90
52481;DHT22;38393;52.404;13.532;2024-01-27T06:13:12;5.10;99.90
52481;DHT22;38393;52.404;13.532;2024-01-27T06:15:37;5.20;99.90
52481;DHT22;38393;52.404;13.532;2024-01-27T06:18:03;5.30;99.90
52481;DHT22;38393;52.404;13.532;2024-01-27T06:20:29;5.20;99.90
52481;DHT22;38393;52.404;13.532;2024-01-27T06:22:54;5.20;99.90
52481;DHT22;38393;52.404;13.532;2024-01-27T06:25:24;5.20;99.90
52481;DHT22;38393;52.404;13.532;2024-01-27T06:27:49;5.30;99.90
52481;DHT22;38393;52.404;13.532;2024-01-27T06:30:15;5.40;99.90
52481;DHT22;38393;52.404;13.532;2024-01-27T06:32:41;5.40;99.90
52481;DHT22;38393;52.404;13.532;2024-01-27T06:35:07;5.50;99.90
52481;DHT22;38393;52.404;13.532;2024-01-27T06:37:33;5.40;99.90
52481;DHT22;38393;52.404;13.532;2024-01-27T06:40:01;5.40;99.90
52481;DHT22;38393;52.404;13.532;2024-01-27T06:42:26;5.40;99.90
52481;DHT22;38393;52.404;13.532;2024-01-27T06:44:52;5.50;99.90
52481;DHT22;38393;52.404;13.532;2024-01-27T06:47:18;5.40;99.90
52481;DHT22;38393;52.404;13.532;2024-01-27T06:49:43;5.40;99.90
52481;DHT22;38393;52.404;13.532;2024-01-27T06:52:09;5.50;99.90
52481;DHT22;38393;52.404;13.532;2024-01-27T06:54:34;5.50;99.90
52481;DHT22;38393;52.404;13.532;2024-01-27T06:57:01;5.50;99.90
52481;DHT22;38393;52.404;13.532;2024-01-27T06:59:27;5.50;99.90
52481;DHT22;38393;52.404;13.532;2024-01-27T07:01:52;5.60;99.90
52481;DHT22;38393;52.404;13.532;2024-01-27T07:04:18;5.50;99.90
52481;DHT22;38393;52.404;13.532;2024-01-27T07:06:43;5.70;99.90
52481;DHT22;38393;52.404;13.532;2024-01-27T07:09:09;5.60;99.90
52481;DHT22;38393;52.404;13.532;2024-01-27T07:11:35;5.50;99.90
52481;DHT22;38393;52.404;13.532;2024-01-27T07:14:02;5.60;99.90
52481;DHT22;38393;52.404;13.532;2024-01-27T07:16:28;5.60;99.90
52481;DHT22;38393;52.404;13.532;2024-01-27T07:18:53;5.60;99.90
52481;DHT22;38393;52.404;13.532;2024-01-27T07:21:18;5.60;99.90
52481;DHT22;38393;52.404;13.532;2024-01-27T07:23:44;5.60;99.90
52481;DHT22;38393;52.404;13.532;2024-01-27T07:26:10;5.50;99.90
52481;DHT22;38393;52.404;13.532;2024-01-27T07:28:36;5.50;99.90
52481;DHT22;38393;52.404;13.532;2024-01-27T07:31:02;5.60;99.90
52481;DHT22;38393;52.404;13.532;2024-01-27T07:33:27;5.70;99.90
52481;DHT22;38393;52.404;13.532;2024-01-27T07:35:53;5.60;99.90
52481;DHT22;38393;52.404;13.532;2024-01-27T07:38:18;5.70;99.90
52481;DHT22;38393;52.404;13.532;2024-01-27T07:40:44;5.70;99.90
52481;DHT22;38393;52.404;13.532;2024-01-27T07:43:09;5.70;99.90
52481;DHT22;38393;52.404;13.532;2024-01-27T07:45:35;5.80;99.90
52481;DHT22;38393;52.404;13.532;2024-01-27T07:48:00;5.60;99.90
52481;DHT22;38393;52.404;13.532;2024-01-27T07:50:26;5.80;99.90
52481;DHT22;38393;52.404;13.532;2024-01-27T07:52:52;5.90;99.90
52481;DHT22;38393;52.404;13.532;2024-01-27T07:55:17;5.90;99.90
52481;DHT22;38393;52.404;13.532;2024-01-27T07:57:43;5.80;99.90
52481;DHT22;38393;52.404;13.532;2024-01-27T08:00:09;5.80;99.90
52481;DHT22;38393;52.404;13.532;2024-01-27T08:02:34;5.90;99.90
52481;DHT22;38393;52.404;13.532;2024-01-27T08:05:00;5.80;99.90
52481;DHT22;38393;52.404;13.532;2024-01-27T08:07:25;5.90;99.90
52481;DHT22;38393;52.404;13.532;2024-01-27T08:09:51;5.80;99.90
52481;DHT22;38393;52.404;13.532;2024-01-27T08:12:16;5.80;99.90
52481;DHT22;38393;52.404;13.532;2024-01-27T08:14:42;5.90;99.90
52481;DHT22;38393;52.404;13.532;2024-01-27T08:17:08;5.80;99.90
52481;DHT22;38393;52.404;13.532;2024-01-27T08:19:33;6.10;99.90
52481;DHT22;38393;52.404;13.532;2024-01-27T08:21:59;5.90;99.90
52481;DHT22;38393;52.404;13.532;2024-01-27T08:24:24;6.10;99.90
52481;DHT22;38393;52.404;13.532;2024-01-27T08:26:50;6.00;99.90
52481;DHT22;38393;52.404;13.532;2024-01-27T08:29:16;6.00;99.90
52481;DHT22;38393;52.404;13.532;2024-01-27T08:31:41;6.00;99.90
52481;DHT22;38393;52.404;13.532;2024-01-27T08:34:07;6.10;99.90
52481;DHT22;38393;52.404;13.532;2024-01-27T08:36:34;6.10;99.90
52481;DHT22;38393;52.404;13.532;2024-01-27T08:39:00;6.10;99.90
52481;DHT22;38393;52.404;13.532;2024-01-27T08:41:25;6.00;99.90
52481;DHT22;38393;52.404;13.532;2024-01-27T08:43:51;6.20;99.90
52481;DHT22;38393;52.404;13.532;2024-01-27T08:46:16;6.10;99.90
52481;DHT22;38393;52.404;13.532;2024-01-27T08:48:44;6.10;99.90
52481;DHT22;38393;52.404;13.532;2024-01-27T08:51:10;6.30;99.90
52481;DHT22;38393;52.404;13.532;2024-01-27T08:53:37;6.30;99.90
52481;DHT22;38393;52.404;13.532;2024-01-27T08:56:03;6.40;99.90
52481;DHT22;38393;52.404;13.532;2024-01-27T08:58:29;6.40;99.90
52481;DHT22;38393;52.404;13.532;2024-01-27T09:00:54;6.40;99.90
52481;DHT22;38393;52.404;13.532;2024-01-27T09:03:20;6.40;99.90
52481;DHT22;38393;52.404;13.532;2024-01-27T09:05:48;6.40;99.90
52481;DHT22;38393;52.404;13.532;2024-01-27T09:08:14;6.50;99.90
52481;DHT22;38393;52.404;13.532;2024-01-27T09:10:39;6.50;99.90
52481;DHT22;38393;52.404;13.532;2024-01-27T09:13:05;6.50;99.90
52481;DHT22;38393;52.404;13.532;2024-01-27T09:15:30;6.50;99.90
52481;DHT22;38393;52.404;13.532;2024-01-27T09:17:56;6.60;99.90
52481;DHT22;38393;52.404;13.532;2024-01-27T09:20:22;6.60;99.90
52481;DHT22;38393;52.404;13.532;2024-01-27T09:22:48;6.50;99.90
52481;DHT22;38393;52.404;13.532;2024-01-27T09:25:15;6.60;99.90
52481;DHT22;38393;52.404;13.532;2024-01-27T09:27:40;6.50;99.90
52481;DHT22;38393;52.404;13.532;2024-01-27T09:30:07;6.60;99.90
52481;DHT22;38393;52.404;13.532;2024-01-27T09:32:33;6.60;99.90
52481;DHT22;38393;52.404;13.532;2024-01-27T09:34:58;6.60;99.90
52481;DHT22;38393;52.404;13.532;2024-01-27T09:37:24;6.70;99.90
52481;DHT22;38393;52.404;13.532;2024-01-27T09:39:49;6.70;99.90
52481;DHT22;38393;52.404;13.532;2024-01-27T09:42:15;6.70;99.90
52481;DHT22;38393;52.404;13.532;2024-01-27T09:44:43;6.70;99.90
52481;DHT22;38393;52.404;13.532;2024-01-27T09:47:11;6.90;99.90
52481;DHT22;38393;52.404;13.532;2024-01-27T09:49:38;6.60;99.90
52481;DHT22;38393;52.404;13.532;2024-01-27T09:52:05;6.80;99.90
52481;DHT22;38393;52.404;13.532;2024-01-27T09:54:30;6.80;99.90
52481;DHT22;38393;52.404;13.532;2024-01-27T09:56:56;6.90;99.90
52481;DHT22;38393;52.404;13.532;2024-01-27T09:59:23;6.90;99.90
52481;DHT22;38393;52.404;13.532;2024-01-27T10:01:48;7.00;99.90
52481;DHT22;38393;52.404;13.532;2024-01-27T10:04:14;6.90;99.90
52481;DHT22;38393;52.404;13.532;2024-01-27T10:06:40;7.00;99.90
52481;DHT22;38393;52.404;13.532;2024-01-27T10:09:06;6.90;99.90
52481;DHT22;38393;52.404;13.532;2024-01-27T10:11:35;6.90;99.90
52481;DHT22;38393;52.404;13.532;2024-01-27T10:14:01;6.90;99.90
52481;DHT22;38393;52.404;13.532;2024-01-27T10:16:28;6.90;99.90
52481;DHT22;38393;52.404;13.532;2024-01-27T10:19:03;6.90;99.90
52481;DHT22;38393;52.404;13.532;2024-01-27T10:21:28;7.00;99.90
52481;DHT22;38393;52.404;13.532;2024-01-27T10:23:54;7.00;99.90
52481;DHT22;38393;52.404;13.532;2024-01-27T10:26:19;7.00;99.90
52481;DHT22;38393;52.404;13.532;2024-01-27T10:28:55;6.90;99.90
52481;DHT22;38393;52.404;13.532;2024-01-27T10:31:29;6.90;99.90
52481;DHT22;38393;52.404;13.532;2024-01-27T10:33:56;6.90;99.90
52481;DHT22;38393;52.404;13.532;2024-01-27T10:36:22;7.00;99.90
52481;DHT22;38393;52.404;13.532;2024-01-27T10:38:48;7.10;99.90
52481;DHT22;38393;52.404;13.532;2024-01-27T10:41:21;7.00;99.90
52481;DHT22;38393;52.404;13.532;2024-01-27T10:43:50;7.00;99.90
52481;DHT22;38393;52.404;13.532;2024-01-27T10:46:19;7.20;99.90
52481;DHT22;38393;52.404;13.532;2024-01-27T10:48:51;7.20;99.90
52481;DHT22;38393;52.404;13.532;2024-01-27T10:51:22;7.20;99.90
52481;DHT22;38393;52.404;13.532;2024-01-27T10:53:52;7.30;99.90
52481;DHT22;38393;52.404;13.532;2024-01-27T10:56:22;7.40;99.90
52481;DHT22;38393;52.404;13.532;2024-01-27T10:58:49;7.30;99.90
52481;DHT22;38393;52.404;13.532;2024-01-27T11:01:16;7.10;99.90
52481;DHT22;38393;52.404;13.532;2024-01-27T11:03:44;7.20;99.90
52481;DHT22;38393;52.404;13.532;2024-01-27T11:06:12;7.30;99.90
52481;DHT22;38393;52.404;13.532;2024-01-27T11:08:39;7.40;99.90
52481;DHT22;38393;52.404;13.532;2024-01-27T11:11:05;7.30;99.90
52481;DHT22;38393;52.404;13.532;2024-01-27T11:13:32;7.30;99.90
52481;DHT22;38393;52.404;13.532;2024-01-27T11:15:58;7.30;99.90
52481;DHT22;38393;52.404;13.532;2024-01-27T11:18:25;7.20;99.90
52481;DHT22;38393;52.404;13.532;2024-01-27T11:20:58;7.20;99.90
52481;DHT22;38393;52.404;13.532;2024-01-27T11:23:34;7.20;99.90
52481;DHT22;38393;52.404;13.532;2024-01-27T11:26:07;7.30;99.90
52481;DHT22;38393;52.404;13.532;2024-01-27T11:28:33;7.30;99.90
52481;DHT22;38393;52.404;13.532;2024-01-27T11:31:03;7.50;99.90
52481;DHT22;38393;52.404;13.532;2024-01-27T11:33:29;7.30;99.90
52481;DHT22;38393;52.404;13.532;2024-01-27T11:36:04;7.30;99.90
52481;DHT22;38393;52.404;13.532;2024-01-27T11:38:31;7.30;99.90
52481;DHT22;38393;52.404;13.532;2024-01-27T11:40:57;7.30;99.90
52481;DHT22;38393;52.404;13.532;2024-01-27T11:43:23;7.20;99.90
52481;DHT22;38393;52.404;13.532;2024-01-27T11:45:58;7.10;99.90
52481;DHT22;38393;52.404;13.532;2024-01-27T11:48:24;7.20;99.90
52481;DHT22;38393;52.404;13.532;2024-01-27T11:53:27;7.20;99.90
52481;DHT22;38393;52.404;13.532;2024-01-27T11:55:56;7.20;99.90
52481;DHT22;38393;52.404;13.532;2024-01-27T11:58:21;7.30;99.90
52481;DHT22;38393;52.404;13.532;2024-01-27T12:00:47;7.30;99.90
52481;DHT22;38393;52.404;13.532;2024-01-27T12:03:13;7.30;99.90
52481;DHT22;38393;52.404;13.532;2024-01-27T12:05:38;7.40;99.90
52481;DHT22;38393;52.404;13.532;2024-01-27T12:08:07;7.30;99.90
52481;DHT22;38393;52.404;13.532;2024-01-27T12:10:32;7.30;99.90
52481;DHT22;38393;52.404;13.532;2024-01-27T12:12:58;7.30;99.90
52481;DHT22;38393;52.404;13.532;2024-01-27T12:15:23;7.30;99.90
52481;DHT22;38393;52.404;13.532;2024-01-27T12:17:52;7.20;99.90
52481;DHT22;38393;52.404;13.532;2024-01-27T12:20:18;7.20;99.90
52481;DHT22;38393;52.404;13.532;2024-01-27T12:22:43;7.30;99.90
52481;DHT22;38393;52.404;13.532;2024-01-27T12:25:10;7.30;99.90
52481;DHT22;38393;52.404;13.532;2024-01-27T12:27:39;7.20;99.90
52481;DHT22;38393;52.404;13.532;2024-01-27T12:30:05;7.10;99.90
52481;DHT22;38393;52.404;13.532;2024-01-27T12:32:31;7.20;99.90
52481;DHT22;38393;52.404;13.532;2024-01-27T12:34:57;7.10;99.90
52481;DHT22;38393;52.404;13.532;2024-01-27T12:37:25;7.30;99.90
52481;DHT22;38393;52.404;13.532;2024-01-27T12:39:51;7.20;99.90
52481;DHT22;38393;52.404;13.532;2024-01-27T12:42:16;7.20;99.90
52481;DHT22;38393;52.404;13.532;2024-01-27T12:44:42;7.20;99.90
52481;DHT22;38393;52.404;13.532;2024-01-27T12:47:09;7.20;99.90
52481;DHT22;38393;52.404;13.532;2024-01-27T12:49:35;7.30;99.90
52481;DHT22;38393;52.404;13.532;2024-01-27T12:52:02;7.30;99.90
52481;DHT22;38393;52.404;13.532;2024-01-27T12:54:28;7.50;99.90
52481;DHT22;38393;52.404;13.532;2024-01-27T12:56:53;7.70;99.90
52481;DHT22;38393;52.404;13.532;2024-01-27T12:59:19;7.50;99.90
52481;DHT22;38393;52.404;13.532;2024-01-27T13:01:45;7.50;99.90
52481;DHT22;38393;52.404;13.532;2024-01-27T13:04:10;7.50;99.90
52481;DHT22;38393;52.404;13.532;2024-01-27T13:06:36;7.50;99.90
52481;DHT22;38393;52.404;13.532;2024-01-27T13:09:03;7.30;99.90
52481;DHT22;38393;52.404;13.532;2024-01-27T13:11:29;7.20;99.90
52481;DHT22;38393;52.404;13.532;2024-01-27T13:13:54;7.20;99.90
52481;DHT22;38393;52.404;13.532;2024-01-27T13:16:20;7.20;99.90
52481;DHT22;38393;52.404;13.532;2024-01-27T13:18:45;7.20;99.90
52481;DHT22;38393;52.404;13.532;2024-01-27T13:21:11;7.30;99.90
52481;DHT22;38393;52.404;13.532;2024-01-27T13:23:37;7.20;99.90
52481;DHT22;38393;52.404;13.532;2024-01-27T13:26:03;7.20;99.90
52481;DHT22;38393;52.404;13.532;2024-01-27T13:28:28;7.20;99.90
52481;DHT22;38393;52.404;13.532;2024-01-27T13:30:54;7.30;99.90
52481;DHT22;38393;52.404;13.532;2024-01-27T13:33:19;7.50;99.90
52481;DHT22;38393;52.404;13.532;2024-01-27T13:35:45;7.40;99.90
52481;DHT22;38393;52.404;13.532;2024-01-27T13:38:13;7.50;99.90
52481;DHT22;38393;52.404;13.532;2024-01-27T13:40:38;7.40;99.90
52481;DHT22;38393;52.404;13.532;2024-01-27T13:43:04;7.50;99.90
52481;DHT22;38393;52.404;13.532;2024-01-27T13:45:30;7.40;99.90
52481;DHT22;38393;52.404;13.532;2024-01-27T13:47:56;7.70;99.90
52481;DHT22;38393;52.404;13.532;2024-01-27T13:50:22;7.40;99.90
52481;DHT22;38393;52.404;13.532;2024-01-27T13:52:47;7.40;99.90
52481;DHT22;38393;52.404;13.532;2024-01-27T13:55:13;7.30;99.90
52481;DHT22;38393;52.404;13.532;2024-01-27T13:57:39;7.30;99.90
52481;DHT22;38393;52.404;13.532;2024-01-27T14:00:06;7.10;99.90
52481;DHT22;38393;52.404;13.532;2024-01-27T14:02:31;7.20;99.90
52481;DHT22;38393;52.404;13.532;2024-01-27T14:04:57;7.30;99.90
52481;DHT22;38393;52.404;13.532;2024-01-27T14:07:22;7.10;99.90
52481;DHT22;38393;52.404;13.532;2024-01-27T14:09:48;7.30;99.90
52481;DHT22;38393;52.404;13.532;2024-01-27T14:12:14;7.10;99.90
52481;DHT22;38393;52.404;13.532;2024-01-27T14:14:41;7.00;99.90
52481;DHT22;38393;52.404;13.532;2024-01-27T14:17:07;7.20;99.90
52481;DHT22;38393;52.404;13.532;2024-01-27T14:19:33;7.20;99.90
52481;DHT22;38393;52.404;13.532;2024-01-27T14:21:58;7.20;99.90
52481;DHT22;38393;52.404;13.532;2024-01-27T14:24:24;7.40;99.90
52481;DHT22;38393;52.404;13.532;2024-01-27T14:26:51;7.20;99.90
52481;DHT22;38393;52.404;13.532;2024-01-27T14:29:17;7.20;99.90
52481;DHT22;38393;52.404;13.532;2024-01-27T14:31:42;7.30;99.90
52481;DHT22;38393;52.404;13.532;2024-01-27T14:34:08;7.50;99.90
52481;DHT22;38393;52.404;13.532;2024-01-27T14:36:35;7.20;99.90
52481;DHT22;38393;52.404;13.532;2024-01-27T14:39:01;7.30;99.90
52481;DHT22;38393;52.404;13.532;2024-01-27T14:41:27;7.30;99.90
52481;DHT22;38393;52.404;13.532;2024-01-27T14:43:52;7.20;99.90
52481;DHT22;38393;52.404;13.532;2024-01-27T14:46:18;7.20;99.90
52481;DHT22;38393;52.404;13.532;2024-01-27T14:48:44;7.20;99.90
52481;DHT22;38393;52.404;13.532;2024-01-27T14:51:10;7.20;99.90
52481;DHT22;38393;52.404;13.532;2024-01-27T14:53:36;7.30;99.90
52481;DHT22;38393;52.404;13.532;2024-01-27T14:56:01;7.30;99.90
52481;DHT22;38393;52.404;13.532;2024-01-27T14:58:27;7.20;99.90
52481;DHT22;38393;52.404;13.532;2024-01-27T15:00:53;7.30;99.90
52481;DHT22;38393;52.404;13.532;2024-01-27T15:03:20;7.10;99.90
52481;DHT22;38393;52.404;13.532;2024-01-27T15:05:46;7.10;99.90
52481;DHT22;38393;52.404;13.532;2024-01-27T15:08:11;7.10;99.90
52481;DHT22;38393;52.404;13.532;2024-01-27T15:10:37;7.10;99.90
52481;DHT22;38393;52.404;13.532;2024-01-27T15:13:05;7.20;99.90
52481;DHT22;38393;52.404;13.532;2024-01-27T15:15:31;6.80;99.90
52481;DHT22;38393;52.404;13.532;2024-01-27T15:17:57;6.90;99.90
52481;DHT22;38393;52.404;13.532;2024-01-27T15:20:26;6.80;99.90
52481;DHT22;38393;52.404;13.532;2024-01-27T15:22:52;6.80;99.90
52481;DHT22;38393;52.404;13.532;2024-01-27T15:25:17;6.80;99.90